Time;durP1;ratioP1;P1;durP2;ratioP2;P2;SDS_P1;SDS_P2;PMS_P1;PMS_P2;Temp;Humidity;BMP_temperature;BMP_pressure;BME280_temperature;BME280_humidity;BME280_pressure;Samples;Min_cycle;Max_cycle;Signal;HPM_P1;HPM_P2
2022/07/20 00:01:51;;;;;;;2.80;2.80;;;25.00;64.00;;;;;;5109620;27;43993;-69
2022/07/20 00:04:21;;;;;;;3.20;3.13;;;25.00;64.10;;;;;;5109600;27;44017;-69
2022/07/20 00:06:49;;;;;;;2.90;2.90;;;24.90;64.30;;;;;;5091136;27;43983;-70
2022/07/20 00:12:13;;;;;;;3.30;3.20;;;25.00;64.90;;;;;;5046287;28;44205;-70
2022/07/20 00:14:41;;;;;;;2.90;2.80;;;25.00;64.60;;;;;;5095408;27;44021;-69
2022/07/20 00:17:09;;;;;;;2.90;2.90;;;25.20;65.20;;;;;;5109740;27;43923;-70
2022/07/20 00:19:38;;;;;;;2.97;2.87;;;25.30;63.90;;;;;;5124124;27;45138;-69
2022/07/20 00:22:06;;;;;;;2.90;2.90;;;25.50;63.30;;;;;;5129321;27;44007;-69
2022/07/20 00:24:34;;;;;;;2.78;2.75;;;25.60;62.80;;;;;;5128970;27;43887;-70
2022/07/20 00:27:02;;;;;;;3.00;2.90;;;25.70;62.40;;;;;;5110720;27;43601;-70
2022/07/20 00:29:30;;;;;;;2.60;2.60;;;25.90;62.20;;;;;;5128788;27;43933;-69
2022/07/20 00:31:58;;;;;;;3.00;2.90;;;25.90;61.70;;;;;;5127739;27;44040;-69
2022/07/20 00:34:26;;;;;;;2.70;2.70;;;26.10;61.40;;;;;;5128992;27;44119;-69
2022/07/20 00:36:55;;;;;;;2.65;2.55;;;26.20;61.10;;;;;;5129168;27;44086;-70
2022/07/20 00:39:23;;;;;;;3.08;2.97;;;26.30;60.60;;;;;;5128790;27;43949;-69
2022/07/20 00:41:51;;;;;;;3.33;3.22;;;26.30;60.30;;;;;;5106321;27;45236;-69
2022/07/20 00:44:26;;;;;;;2.90;2.90;;;26.20;60.60;;;;;;5107641;27;43450;-69
2022/07/20 00:46:55;;;;;;;2.85;2.85;;;26.10;61.00;;;;;;5108173;27;43992;-69
2022/07/20 00:49:23;;;;;;;2.78;2.78;;;25.90;61.40;;;;;;5107872;27;43921;-69
2022/07/20 00:51:51;;;;;;;2.78;2.78;;;25.70;62.10;;;;;;5107809;27;43459;-69
2022/07/20 00:54:20;;;;;;;2.72;2.72;;;25.60;62.70;;;;;;5107876;27;44031;-70
2022/07/20 00:56:48;;;;;;;2.80;2.80;;;25.40;62.90;;;;;;5089301;27;43956;-69
2022/07/20 00:59:16;;;;;;;2.65;2.60;;;25.30;63.30;;;;;;5089205;27;47280;-70
2022/07/20 01:01:44;;;;;;;2.65;2.65;;;25.20;63.50;;;;;;5108685;27;43853;-70
2022/07/20 01:04:12;;;;;;;2.83;2.83;;;25.20;63.70;;;;;;5108379;27;43798;-70
2022/07/20 01:06:40;;;;;;;2.90;2.90;;;25.10;63.80;;;;;;5108535;27;43961;-69
2022/07/20 01:09:08;;;;;;;2.90;2.90;;;25.10;64.00;;;;;;5108111;27;43903;-70
2022/07/20 01:11:37;;;;;;;2.40;2.40;;;25.00;64.10;;;;;;5089340;27;44602;-70
2022/07/20 01:14:07;;;;;;;2.60;2.60;;;25.00;64.20;;;;;;5107925;27;43963;-70
2022/07/20 01:16:36;;;;;;;2.70;2.70;;;25.00;64.30;;;;;;5107787;27;44082;-70
2022/07/20 01:19:05;;;;;;;2.67;2.67;;;25.00;64.40;;;;;;5107727;27;44004;-70
2022/07/20 01:21:39;;;;;;;2.60;2.60;;;25.00;64.80;;;;;;5089223;27;44983;-71
2022/07/20 01:24:09;;;;;;;2.83;2.83;;;25.00;65.80;;;;;;5099649;27;43839;-70
2022/07/20 01:26:38;;;;;;;3.23;3.13;;;25.00;65.00;;;;;;5089788;27;43977;-70
2022/07/20 01:29:06;;;;;;;2.50;2.50;;;25.10;64.90;;;;;;5107765;27;44965;-69
2022/07/20 01:31:34;;;;;;;3.08;3.00;;;25.30;64.40;;;;;;5107921;27;43530;-70
2022/07/20 01:34:02;;;;;;;2.93;2.87;;;25.40;63.80;;;;;;5107931;27;44033;-70
2022/07/20 01:36:30;;;;;;;2.90;2.90;;;25.60;63.30;;;;;;5071437;28;43402;-71
2022/07/20 01:38:59;;;;;;;2.67;2.67;;;25.70;62.80;;;;;;5088322;27;43961;-71
2022/07/20 01:41:27;;;;;;;2.88;2.78;;;25.90;62.40;;;;;;5087705;27;43896;-70
2022/07/20 01:43:53;;;;;;;2.95;2.85;;;25.90;62.10;;;;;;5087901;27;43375;-70
2022/07/20 01:46:20;;;;;;;2.47;2.47;;;26.10;61.70;;;;;;5107091;27;43809;-69
2022/07/20 01:48:47;;;;;;;2.65;2.65;;;26.20;61.40;;;;;;5107633;27;43919;-69
2022/07/20 01:51:14;;;;;;;2.80;2.70;;;26.20;61.00;;;;;;5089100;27;45040;-71
2022/07/20 01:53:40;;;;;;;2.60;2.60;;;26.30;60.90;;;;;;5107773;27;43933;-69
2022/07/20 01:56:08;;;;;;;2.53;2.53;;;26.20;61.00;;;;;;5089305;27;43971;-70
2022/07/20 01:58:34;;;;;;;3.20;3.10;;;26.10;61.40;;;;;;5107597;27;43674;-70
2022/07/20 02:01:01;;;;;;;3.05;3.00;;;25.90;61.80;;;;;;5107755;27;44024;-70
2022/07/20 02:03:28;;;;;;;2.90;2.90;;;25.70;62.10;;;;;;5107397;27;44044;-70
2022/07/20 02:05:54;;;;;;;2.70;2.70;;;25.60;62.90;;;;;;5108007;27;43907;-69
2022/07/20 02:08:25;;;;;;;2.38;2.38;;;25.50;63.30;;;;;;5107584;27;43690;-71
2022/07/20 02:10:51;;;;;;;2.80;2.80;;;25.30;63.50;;;;;;5107709;27;44032;-69
2022/07/20 02:13:19;;;;;;;2.50;2.50;;;25.30;63.80;;;;;;5107712;27;44051;-69
2022/07/20 02:18:30;;;;;;;2.75;2.75;;;25.10;64.00;;;;;;5107408;27;43940;-71
2022/07/20 02:20:57;;;;;;;2.63;2.63;;;25.10;64.30;;;;;;5107012;27;43909;-70
2022/07/20 02:23:23;;;;;;;2.60;2.60;;;25.10;64.40;;;;;;5107417;27;43812;-71
2022/07/20 02:25:51;;;;;;;2.77;2.77;;;25.00;64.40;;;;;;5107563;27;43827;-70
2022/07/20 02:28:18;;;;;;;2.88;2.80;;;25.00;64.60;;;;;;5106832;27;43927;-69
2022/07/20 02:30:44;;;;;;;2.70;2.70;;;25.00;65.10;;;;;;5088488;27;43979;-70
2022/07/20 02:33:11;;;;;;;3.03;2.92;;;25.00;65.20;;;;;;5107740;27;44461;-70
2022/07/20 02:35:37;;;;;;;2.80;2.80;;;25.10;65.20;;;;;;5107387;27;43451;-70
2022/07/20 02:38:04;;;;;;;2.80;2.80;;;25.20;65.00;;;;;;5088222;27;47180;-70
2022/07/20 02:40:31;;;;;;;2.83;2.83;;;25.30;64.50;;;;;;5106774;27;43301;-70
2022/07/20 02:42:59;;;;;;;3.30;3.20;;;25.40;64.00;;;;;;5107086;27;43559;-70
2022/07/20 02:45:28;;;;;;;2.88;2.88;;;25.60;63.40;;;;;;5107470;27;44008;-69
2022/07/20 02:48:02;;;;;;;2.90;2.90;;;25.70;63.60;;;;;;5106828;27;43940;-69
2022/07/20 02:50:31;;;;;;;3.03;2.95;;;25.90;62.60;;;;;;5106594;27;43917;-70
2022/07/20 02:52:59;;;;;;;2.92;2.92;;;26.00;62.90;;;;;;5106554;27;44037;-70
2022/07/20 02:55:27;;;;;;;3.00;2.90;;;26.10;61.80;;;;;;5108272;27;43963;-70
2022/07/20 02:57:55;;;;;;;2.65;2.65;;;26.20;61.50;;;;;;5110316;27;43893;-71
2022/07/20 03:00:23;;;;;;;2.90;2.90;;;26.30;61.20;;;;;;5110158;27;43948;-69
2022/07/20 03:02:52;;;;;;;2.97;2.95;;;26.30;60.90;;;;;;5110441;27;43987;-70
2022/07/20 03:05:21;;;;;;;3.20;3.10;;;26.40;60.70;;;;;;5111131;27;43881;-70
2022/07/20 03:07:49;;;;;;;3.17;3.08;;;26.30;60.90;;;;;;5110293;27;43718;-70
2022/07/20 03:10:17;;;;;;;2.88;2.88;;;26.20;61.20;;;;;;5110468;27;44019;-70
2022/07/20 03:12:45;;;;;;;2.80;2.80;;;26.00;61.70;;;;;;5110392;27;43399;-70
2022/07/20 03:15:13;;;;;;;3.20;3.10;;;25.80;62.20;;;;;;5110597;27;43954;-71
2022/07/20 03:17:44;;;;;;;2.97;2.97;;;25.60;62.70;;;;;;5109750;27;43948;-70
2022/07/20 03:20:15;;;;;;;2.60;2.60;;;25.50;63.20;;;;;;5110282;27;44149;-69
2022/07/20 03:22:43;;;;;;;2.80;2.80;;;25.40;63.60;;;;;;5110157;27;43438;-69
2022/07/20 03:25:11;;;;;;;2.78;2.67;;;25.30;63.80;;;;;;5090572;27;43439;-70
2022/07/20 03:27:39;;;;;;;2.90;2.90;;;25.20;64.60;;;;;;5108368;27;45668;-69
2022/07/20 03:30:08;;;;;;;2.80;2.70;;;25.20;64.20;;;;;;5109844;27;44096;-70
2022/07/20 03:32:36;;;;;;;2.88;2.80;;;25.10;64.30;;;;;;5083245;27;43972;-69
2022/07/20 03:35:05;;;;;;;2.75;2.75;;;25.10;64.40;;;;;;5083626;27;43984;-70
2022/07/20 03:37:34;;;;;;;2.90;2.90;;;25.10;64.50;;;;;;5089875;27;43993;-70
2022/07/20 03:40:03;;;;;;;2.95;2.95;;;25.00;64.50;;;;;;5082891;27;44028;-70
2022/07/20 03:42:31;;;;;;;2.72;2.72;;;25.00;64.60;;;;;;5083811;27;44095;-70
2022/07/20 03:44:59;;;;;;;2.65;2.65;;;25.00;64.80;;;;;;5090001;27;43841;-70
2022/07/20 03:47:27;;;;;;;3.10;3.00;;;25.00;64.80;;;;;;5089051;27;44655;-70
2022/07/20 03:49:55;;;;;;;2.88;2.80;;;25.00;65.10;;;;;;5102797;27;43889;-70
2022/07/20 03:52:23;;;;;;;2.85;2.85;;;25.00;65.10;;;;;;5109468;27;43819;-70
2022/07/20 03:54:53;;;;;;;3.28;3.20;;;25.10;65.10;;;;;;5091074;27;44075;-71
2022/07/20 03:57:21;;;;;;;2.70;2.70;;;25.20;64.60;;;;;;5109446;27;44038;-70
2022/07/20 03:59:49;;;;;;;2.92;2.92;;;25.40;64.10;;;;;;5108986;27;43974;-70
2022/07/20 04:02:17;;;;;;;2.80;2.80;;;25.50;63.40;;;;;;5108925;27;43954;-69
2022/07/20 04:04:47;;;;;;;2.90;2.90;;;25.70;62.80;;;;;;5109452;27;43947;-70
2022/07/20 04:07:15;;;;;;;3.22;3.13;;;25.90;62.30;;;;;;5109078;27;43904;-71
2022/07/20 04:09:46;;;;;;;3.00;3.00;;;26.00;62.00;;;;;;5109194;27;43896;-69
2022/07/20 04:12:17;;;;;;;3.22;3.13;;;26.10;61.50;;;;;;5109525;27;43360;-70
2022/07/20 04:14:45;;;;;;;3.00;2.90;;;26.20;61.20;;;;;;5109537;27;43958;-70
2022/07/20 04:17:13;;;;;;;3.20;3.10;;;26.30;60.80;;;;;;5109505;27;43931;-70
2022/07/20 04:19:41;;;;;;;2.83;2.83;;;26.30;60.80;;;;;;5109242;27;43743;-70
2022/07/20 04:22:09;;;;;;;2.67;2.67;;;26.20;60.90;;;;;;5108927;27;43991;-70
2022/07/20 04:24:37;;;;;;;2.80;2.80;;;26.00;61.30;;;;;;5107671;27;43950;-70
2022/07/20 04:27:05;;;;;;;2.92;2.90;;;25.90;61.70;;;;;;5089144;27;44945;-70
2022/07/20 04:29:35;;;;;;;2.67;2.67;;;25.70;62.10;;;;;;5088766;27;43428;-70
2022/07/20 04:32:03;;;;;;;2.88;2.88;;;25.60;62.70;;;;;;5088794;27;43988;-69
2022/07/20 04:34:31;;;;;;;2.70;2.70;;;25.50;62.90;;;;;;5089369;27;43999;-70
2022/07/20 04:37:04;;;;;;;2.80;2.80;;;25.30;63.10;;;;;;5070084;27;46344;-69
2022/07/20 04:39:32;;;;;;;2.47;2.47;;;25.30;63.30;;;;;;5097942;27;43403;-69
2022/07/20 04:42:00;;;;;;;2.80;2.80;;;25.20;63.50;;;;;;5107704;27;44066;-70
2022/07/20 04:44:28;;;;;;;3.17;3.17;;;25.10;63.60;;;;;;5087910;27;43996;-71
2022/07/20 04:46:57;;;;;;;3.63;3.53;;;25.10;63.70;;;;;;5088419;27;44064;-71
2022/07/20 04:49:26;;;;;;;3.10;3.00;;;25.10;64.00;;;;;;5088308;27;44014;-71
2022/07/20 04:51:54;;;;;;;2.80;2.80;;;25.10;64.30;;;;;;5091490;27;43917;-69
2022/07/20 04:54:22;;;;;;;3.03;3.03;;;25.10;64.90;;;;;;5108654;27;43977;-70
2022/07/20 04:56:50;;;;;;;2.90;2.90;;;25.00;65.10;;;;;;5108109;27;45001;-69
2022/07/20 04:59:18;;;;;;;3.15;3.10;;;25.10;65.10;;;;;;5108045;27;44069;-70
2022/07/20 05:01:46;;;;;;;2.78;2.67;;;25.20;65.00;;;;;;5108544;27;44046;-70
2022/07/20 05:04:16;;;;;;;3.00;3.00;;;25.30;64.60;;;;;;5092406;27;43929;-69
2022/07/20 05:06:44;;;;;;;2.78;2.70;;;25.50;64.10;;;;;;5088388;27;43992;-69
2022/07/20 05:09:12;;;;;;;2.60;2.60;;;25.60;63.60;;;;;;5088589;27;43436;-70
2022/07/20 05:11:40;;;;;;;3.00;3.00;;;25.70;63.30;;;;;;5088364;27;43965;-71
2022/07/20 05:14:09;;;;;;;2.90;2.90;;;25.90;62.90;;;;;;5088915;27;44106;-70
2022/07/20 05:16:37;;;;;;;2.83;2.83;;;26.00;62.40;;;;;;5088511;27;43858;-69
2022/07/20 05:19:05;;;;;;;2.90;2.90;;;26.10;62.10;;;;;;5091113;27;44115;-69
2022/07/20 05:21:41;;;;;;;2.58;2.58;;;26.20;61.80;;;;;;5090320;27;44022;-69
2022/07/20 05:24:09;;;;;;;3.08;3.08;;;26.30;61.50;;;;;;5089014;27;43916;-69
2022/07/20 05:26:37;;;;;;;2.92;2.92;;;26.40;61.30;;;;;;5106405;27;43910;-70
2022/07/20 05:29:05;;;;;;;3.20;3.10;;;26.40;60.90;;;;;;5090232;27;43988;-69
2022/07/20 05:31:33;;;;;;;2.78;2.78;;;26.40;61.80;;;;;;5088410;27;43850;-70
2022/07/20 05:34:02;;;;;;;2.70;2.70;;;26.20;61.30;;;;;;5106892;27;44054;-70
2022/07/20 05:36:29;;;;;;;2.90;2.90;;;26.10;62.60;;;;;;5107899;27;43968;-70
2022/07/20 05:38:59;;;;;;;2.80;2.80;;;25.90;62.30;;;;;;5096760;27;43511;-70
2022/07/20 05:41:28;;;;;;;2.70;2.70;;;25.70;62.90;;;;;;5088001;27;44348;-71
2022/07/20 05:43:56;;;;;;;2.70;2.70;;;25.60;63.40;;;;;;5088529;27;43386;-69
2022/07/20 05:46:24;;;;;;;2.78;2.78;;;25.50;63.70;;;;;;5069634;28;46990;-69
2022/07/20 05:48:52;;;;;;;2.85;2.75;;;25.40;63.90;;;;;;5088224;27;43797;-70
2022/07/20 05:51:21;;;;;;;3.00;2.90;;;25.30;64.10;;;;;;5087822;27;44070;-69
2022/07/20 05:54:00;;;;;;;2.92;2.83;;;25.20;64.30;;;;;;5095322;27;43970;-71
2022/07/20 05:56:28;;;;;;;2.80;2.80;;;25.20;64.50;;;;;;5081136;27;44664;-69
2022/07/20 05:58:56;;;;;;;2.80;2.80;;;25.10;64.60;;;;;;5081466;27;43902;-70
2022/07/20 06:01:24;;;;;;;2.80;2.70;;;25.10;64.80;;;;;;5081362;27;44002;-70
2022/07/20 06:03:52;;;;;;;2.95;2.95;;;25.10;64.90;;;;;;5081982;27;43943;-70
2022/07/20 06:06:20;;;;;;;2.70;2.70;;;25.10;65.00;;;;;;5081245;27;43977;-69
2022/07/20 06:08:48;;;;;;;2.83;2.83;;;25.00;65.00;;;;;;5081032;27;43411;-69
2022/07/20 06:11:37;;;;;;;2.50;2.50;;;25.00;65.00;;;;;;5084455;27;43853;-70
2022/07/20 06:14:05;;;;;;;2.75;2.75;;;25.00;65.10;;;;;;5088080;27;43923;-70
2022/07/20 06:16:33;;;;;;;3.22;3.13;;;25.00;65.30;;;;;;5094120;27;44051;-70
2022/07/20 06:19:01;;;;;;;2.47;2.47;;;25.00;65.80;;;;;;5104069;27;44012;-70
2022/07/20 06:21:29;;;;;;;2.55;2.55;;;25.10;65.70;;;;;;5107625;27;44003;-70
2022/07/20 06:23:57;;;;;;;3.10;3.00;;;25.20;65.40;;;;;;5107481;27;44363;-69
2022/07/20 06:26:25;;;;;;;2.75;2.75;;;25.30;64.90;;;;;;5097908;27;43913;-70
2022/07/20 06:28:54;;;;;;;2.77;2.77;;;25.50;64.30;;;;;;5087577;27;43987;-70
2022/07/20 06:31:23;;;;;;;2.88;2.80;;;25.60;63.80;;;;;;5090045;27;43952;-70
2022/07/20 06:34:11;;;;;;;2.88;2.88;;;25.80;63.50;;;;;;5072850;28;44035;-70
2022/07/20 06:36:38;;;;;;;2.70;2.70;;;25.90;63.10;;;;;;5091028;27;43945;-70
2022/07/20 06:39:06;;;;;;;2.63;2.63;;;26.00;62.70;;;;;;5090740;27;43956;-69
2022/07/20 06:41:35;;;;;;;2.78;2.78;;;26.10;62.40;;;;;;5091053;27;43941;-70
2022/07/20 06:44:07;;;;;;;2.85;2.75;;;26.20;62.00;;;;;;5111539;27;43498;-69
2022/07/20 06:46:35;;;;;;;3.03;3.03;;;26.30;61.70;;;;;;5091243;27;43608;-70
2022/07/20 06:49:06;;;;;;;3.25;3.15;;;26.20;61.80;;;;;;5090835;27;43974;-71
2022/07/20 06:51:34;;;;;;;2.85;2.75;;;26.10;62.00;;;;;;5090945;27;43946;-69
2022/07/20 06:54:02;;;;;;;2.67;2.67;;;25.90;62.30;;;;;;5091299;27;43903;-70
2022/07/20 06:56:29;;;;;;;2.60;2.60;;;25.80;62.80;;;;;;5090816;27;43936;-69
2022/07/20 06:58:57;;;;;;;2.42;2.42;;;25.60;63.40;;;;;;5090722;27;43996;-70
2022/07/20 07:01:27;;;;;;;2.60;2.60;;;25.50;63.70;;;;;;5091003;27;43883;-71
2022/07/20 07:03:55;;;;;;;2.65;2.65;;;25.40;63.90;;;;;;5091061;27;43954;-70
2022/07/20 07:06:27;;;;;;;2.60;2.60;;;25.30;64.10;;;;;;5071968;27;44001;-70
2022/07/20 07:08:55;;;;;;;2.80;2.80;;;25.20;64.30;;;;;;5091347;27;43274;-69
2022/07/20 07:11:23;;;;;;;2.95;2.95;;;25.20;64.50;;;;;;5110242;27;43837;-70
2022/07/20 07:13:51;;;;;;;3.00;2.90;;;25.10;64.60;;;;;;5091910;27;43989;-70
2022/07/20 07:16:19;;;;;;;2.70;2.70;;;25.10;64.60;;;;;;5110167;27;43950;-70
2022/07/20 07:18:48;;;;;;;2.90;2.90;;;25.10;64.60;;;;;;5110252;27;44025;-70
2022/07/20 07:21:17;;;;;;;2.80;2.80;;;25.00;64.70;;;;;;5109960;27;43927;-71
2022/07/20 07:23:49;;;;;;;2.60;2.60;;;25.00;64.70;;;;;;5109451;27;43939;-71
2022/07/20 07:26:17;;;;;;;3.10;3.10;;;25.00;65.00;;;;;;5097327;27;43829;-70
2022/07/20 07:28:45;;;;;;;2.67;2.67;;;25.00;65.30;;;;;;5071861;27;43796;-69
2022/07/20 07:31:17;;;;;;;3.00;3.00;;;25.00;65.70;;;;;;5090213;27;43908;-69
2022/07/20 07:33:45;;;;;;;2.80;2.80;;;25.10;65.00;;;;;;5090863;27;43861;-70
2022/07/20 07:36:14;;;;;;;2.90;2.90;;;25.30;64.60;;;;;;5090344;27;43939;-69
2022/07/20 07:38:42;;;;;;;2.60;2.60;;;25.40;64.10;;;;;;5090108;27;43351;-70
2022/07/20 07:41:11;;;;;;;2.97;2.90;;;25.60;63.70;;;;;;5098195;27;43805;-70
2022/07/20 07:43:38;;;;;;;2.95;2.92;;;25.70;63.10;;;;;;5110080;27;43952;-70
2022/07/20 07:46:06;;;;;;;2.88;2.88;;;25.80;63.10;;;;;;5109479;27;43850;-70
2022/07/20 07:48:35;;;;;;;3.03;3.03;;;25.90;62.30;;;;;;5091244;27;44927;-70
2022/07/20 07:51:03;;;;;;;3.20;3.10;;;26.00;62.00;;;;;;5093579;27;44055;-70
2022/07/20 07:53:32;;;;;;;2.95;2.85;;;26.10;61.60;;;;;;5090270;27;43912;-70
2022/07/20 07:56:00;;;;;;;2.80;2.70;;;26.20;61.20;;;;;;5099247;27;43902;-69
2022/07/20 07:58:28;;;;;;;3.13;3.03;;;26.20;61.20;;;;;;5109538;27;44373;-68
2022/07/20 08:00:56;;;;;;;2.97;2.88;;;26.10;61.40;;;;;;5109444;27;43908;-69
2022/07/20 08:03:24;;;;;;;3.13;3.03;;;26.00;61.90;;;;;;5110011;27;44026;-70
2022/07/20 08:05:59;;;;;;;2.75;2.75;;;25.80;62.20;;;;;;5105252;27;44038;-70
2022/07/20 08:08:28;;;;;;;2.83;2.78;;;25.60;62.90;;;;;;5093819;27;44047;-69
2022/07/20 08:10:58;;;;;;;2.70;2.70;;;25.50;63.30;;;;;;5109425;27;43412;-70
2022/07/20 08:13:26;;;;;;;2.85;2.75;;;25.40;63.60;;;;;;5109615;27;43872;-70
2022/07/20 08:15:54;;;;;;;2.83;2.83;;;25.30;63.80;;;;;;5097746;27;44127;-70
2022/07/20 08:18:22;;;;;;;2.83;2.83;;;25.20;64.00;;;;;;5070740;28;46096;-69
2022/07/20 08:20:51;;;;;;;2.75;2.75;;;25.10;64.00;;;;;;5100132;27;43292;-69
2022/07/20 08:23:19;;;;;;;2.65;2.65;;;25.10;64.20;;;;;;5109080;27;43898;-70
2022/07/20 08:25:47;;;;;;;2.83;2.83;;;25.10;64.40;;;;;;5108929;27;43932;-69
2022/07/20 08:28:17;;;;;;;3.00;2.90;;;25.00;64.40;;;;;;5091097;27;43885;-70
2022/07/20 08:30:47;;;;;;;2.70;2.70;;;25.00;64.50;;;;;;5070657;28;44047;-69
2022/07/20 08:33:21;;;;;;;3.00;2.95;;;25.00;64.50;;;;;;5089294;27;44027;-70
2022/07/20 08:35:49;;;;;;;2.97;2.87;;;25.00;64.50;;;;;;5070224;28;45315;-69
2022/07/20 08:38:17;;;;;;;3.20;3.10;;;25.00;64.70;;;;;;5088990;27;43942;-69
2022/07/20 08:40:46;;;;;;;2.88;2.88;;;25.00;65.00;;;;;;5088713;27;44019;-70
2022/07/20 08:43:15;;;;;;;3.13;3.03;;;25.00;65.10;;;;;;5089368;27;43825;-70
2022/07/20 08:45:46;;;;;;;3.50;3.30;;;25.10;64.70;;;;;;5088574;27;43956;-69
2022/07/20 08:48:16;;;;;;;3.20;3.10;;;25.20;64.40;;;;;;5082120;27;44041;-70
2022/07/20 08:50:45;;;;;;;3.33;3.22;;;25.40;64.10;;;;;;5088706;27;44048;-71
2022/07/20 08:53:13;;;;;;;3.33;3.03;;;25.50;63.30;;;;;;5088265;27;43323;-70
2022/07/20 08:55:41;;;;;;;4.32;2.70;;;25.70;62.80;;;;;;5095351;27;44045;-70
2022/07/20 08:58:10;;;;;;;3.25;3.15;;;25.80;62.40;;;;;;5101581;27;43951;-69
2022/07/20 09:00:38;;;;;;;3.55;3.45;;;25.90;62.20;;;;;;5094474;27;43860;-70
2022/07/20 09:03:08;;;;;;;3.20;3.10;;;26.00;61.80;;;;;;5089266;27;43377;-69
2022/07/20 09:05:37;;;;;;;2.80;2.80;;;26.10;61.40;;;;;;5088484;27;43582;-70
2022/07/20 09:08:06;;;;;;;3.40;3.20;;;26.10;61.20;;;;;;5088704;27;43963;-69
2022/07/20 09:10:37;;;;;;;3.08;2.97;;;26.20;60.90;;;;;;5088818;27;43363;-70
2022/07/20 09:13:06;;;;;;;3.47;3.33;;;26.10;61.10;;;;;;5070593;27;43904;-69
2022/07/20 09:15:37;;;;;;;3.30;3.20;;;26.10;61.50;;;;;;5103164;27;43608;-69
2022/07/20 09:18:08;;;;;;;3.20;3.10;;;25.90;62.00;;;;;;5108079;27;43833;-69
2022/07/20 09:20:36;;;;;;;3.15;3.05;;;25.70;62.40;;;;;;5108205;27;43899;-69
2022/07/20 09:23:07;;;;;;;3.10;3.00;;;25.50;63.00;;;;;;5108407;27;43979;-71
2022/07/20 09:25:50;;;;;;;2.75;2.75;;;25.40;63.20;;;;;;5107916;27;43583;-69
2022/07/20 09:28:18;;;;;;;3.25;3.15;;;25.30;63.50;;;;;;5103166;27;43954;-70
2022/07/20 09:30:55;;;;;;;3.03;3.03;;;25.20;63.70;;;;;;5088515;27;43872;-69
2022/07/20 09:33:29;;;;;;;2.70;2.60;;;25.10;63.90;;;;;;5088333;27;44024;-70
2022/07/20 09:35:57;;;;;;;2.55;2.55;;;25.10;64.10;;;;;;5081578;27;43964;-70
2022/07/20 09:38:34;;;;;;;2.85;2.78;;;25.10;64.30;;;;;;5087869;27;43951;-70
2022/07/20 09:41:03;;;;;;;2.83;2.72;;;25.00;64.40;;;;;;5087777;27;43986;-71
2022/07/20 09:43:32;;;;;;;3.20;3.10;;;25.00;64.50;;;;;;5101921;27;43392;-70
2022/07/20 09:46:10;;;;;;;3.30;3.20;;;25.00;65.30;;;;;;5087937;27;43936;-69
2022/07/20 09:48:44;;;;;;;2.90;2.80;;;25.00;64.80;;;;;;5087653;27;43822;-69
2022/07/20 09:51:25;;;;;;;2.80;2.80;;;25.00;65.00;;;;;;5088139;27;43837;-70
2022/07/20 09:54:01;;;;;;;3.07;2.97;;;25.00;65.00;;;;;;5088035;27;43470;-70
2022/07/20 09:56:29;;;;;;;3.27;3.20;;;25.10;64.60;;;;;;5059513;27;44149;-69
2022/07/20 09:58:58;;;;;;;3.27;3.17;;;25.20;64.40;;;;;;5107437;27;43783;-71
2022/07/20 10:01:27;;;;;;;3.17;3.13;;;25.30;63.90;;;;;;5088309;27;43465;-69
2022/07/20 10:03:58;;;;;;;3.30;3.13;;;25.50;63.50;;;;;;5088294;27;43800;-69
2022/07/20 10:06:27;;;;;;;2.88;2.88;;;25.60;63.00;;;;;;5091278;27;43944;-71
2022/07/20 10:09:01;;;;;;;3.30;3.20;;;25.80;62.50;;;;;;5092790;27;43987;-69
2022/07/20 10:11:29;;;;;;;2.90;2.90;;;25.90;62.20;;;;;;5111126;27;43936;-69
2022/07/20 10:13:58;;;;;;;3.90;3.70;;;26.00;61.60;;;;;;5111367;27;43982;-70
2022/07/20 10:16:28;;;;;;;3.60;3.50;;;26.10;61.20;;;;;;5111038;27;45165;-71
2022/07/20 10:18:57;;;;;;;3.72;3.53;;;26.20;60.90;;;;;;5111257;27;43945;-69
2022/07/20 10:21:35;;;;;;;3.55;3.45;;;26.20;60.50;;;;;;5111425;27;44003;-69
2022/07/20 10:24:22;;;;;;;3.40;3.30;;;26.30;60.70;;;;;;5094570;27;43875;-69
2022/07/20 10:26:51;;;;;;;4.07;3.97;;;26.10;60.80;;;;;;5091159;27;43897;-70
2022/07/20 10:29:33;;;;;;;3.80;3.70;;;26.00;61.30;;;;;;5110917;27;43870;-69
2022/07/20 10:32:13;;;;;;;3.50;3.40;;;25.80;61.90;;;;;;5067852;27;43894;-70
2022/07/20 10:34:44;;;;;;;3.42;3.33;;;25.60;62.40;;;;;;5104650;27;43980;-69
2022/07/20 10:37:34;;;;;;;3.35;3.25;;;25.50;62.70;;;;;;5072462;28;46007;-69
2022/07/20 10:40:13;;;;;;;3.42;3.33;;;25.40;63.10;;;;;;5104079;27;44013;-71
2022/07/20 10:42:41;;;;;;;3.80;3.70;;;25.30;63.30;;;;;;5102877;27;43832;-70
2022/07/20 10:45:29;;;;;;;3.58;3.47;;;25.30;63.60;;;;;;5091095;27;43764;-69
2022/07/20 10:47:58;;;;;;;4.00;3.90;;;25.20;63.70;;;;;;5090694;27;45123;-69
2022/07/20 10:50:36;;;;;;;3.70;3.60;;;25.10;63.70;;;;;;5090722;27;43952;-70
2022/07/20 10:53:29;;;;;;;4.00;3.85;;;25.10;63.70;;;;;;5090591;27;43944;-70
2022/07/20 10:55:58;;;;;;;3.92;3.83;;;25.10;63.90;;;;;;5081548;27;43910;-70
2022/07/20 10:58:27;;;;;;;3.70;3.60;;;25.10;64.10;;;;;;5110073;27;43967;-70
2022/07/20 11:00:55;;;;;;;3.90;3.80;;;25.00;64.00;;;;;;5110168;27;43971;-69
2022/07/20 11:03:25;;;;;;;4.17;4.07;;;25.00;63.90;;;;;;5109994;27;43386;-69
2022/07/20 11:06:06;;;;;;;3.70;3.60;;;25.00;64.20;;;;;;5110605;27;43428;-70
2022/07/20 11:08:37;;;;;;;4.50;4.30;;;25.00;64.80;;;;;;5104921;27;43914;-70
2022/07/20 11:11:07;;;;;;;4.50;4.20;;;25.00;64.80;;;;;;5090450;27;43876;-70
2022/07/20 11:13:35;;;;;;;4.20;4.10;;;25.10;64.50;;;;;;5102717;27;43951;-69
2022/07/20 11:16:03;;;;;;;4.53;4.37;;;25.30;64.20;;;;;;5102846;27;43590;-70
2022/07/20 11:18:34;;;;;;;4.40;4.10;;;25.40;63.80;;;;;;5104101;27;43922;-69
2022/07/20 11:21:05;;;;;;;4.60;4.50;;;25.50;63.30;;;;;;5090253;27;43892;-69
2022/07/20 11:23:39;;;;;;;4.50;4.15;;;25.70;63.00;;;;;;5110152;27;43880;-70
2022/07/20 11:26:08;;;;;;;4.90;4.60;;;25.80;62.50;;;;;;5110581;27;43971;-70
2022/07/20 11:28:37;;;;;;;4.43;4.22;;;25.90;62.30;;;;;;5109836;27;44023;-70
2022/07/20 11:31:07;;;;;;;4.03;3.83;;;26.00;61.90;;;;;;5096009;27;44031;-69
2022/07/20 11:33:36;;;;;;;4.18;4.07;;;26.10;61.80;;;;;;5072103;27;43995;-69
2022/07/20 11:36:09;;;;;;;4.45;4.25;;;26.20;61.50;;;;;;5072163;27;43869;-70
2022/07/20 11:38:39;;;;;;;4.35;4.25;;;26.10;61.40;;;;;;5090338;27;45055;-71
2022/07/20 11:41:08;;;;;;;4.47;4.25;;;26.00;62.40;;;;;;5098402;27;43958;-70
2022/07/20 11:43:48;;;;;;;4.45;4.28;;;25.90;62.20;;;;;;5110138;27;43438;-69
2022/07/20 11:46:17;;;;;;;4.32;4.22;;;25.70;62.60;;;;;;5109568;27;43983;-70
2022/07/20 11:48:53;;;;;;;4.57;4.43;;;25.60;63.00;;;;;;5109870;27;43974;-70
2022/07/20 11:51:44;;;;;;;4.38;4.28;;;25.50;63.20;;;;;;5109417;27;43991;-69
2022/07/20 11:54:12;;;;;;;4.03;3.93;;;25.30;63.40;;;;;;5090726;27;43937;-70
2022/07/20 11:56:40;;;;;;;4.35;4.13;;;25.30;63.80;;;;;;5091299;27;43423;-69
2022/07/20 11:59:07;;;;;;;4.40;4.30;;;25.20;63.90;;;;;;5109282;27;43938;-69
2022/07/20 12:01:36;;;;;;;4.63;4.40;;;25.10;64.00;;;;;;5109607;27;44014;-69
2022/07/20 12:04:07;;;;;;;4.60;4.40;;;25.10;64.10;;;;;;5109194;27;43936;-70
2022/07/20 12:06:37;;;;;;;4.32;4.22;;;25.10;64.20;;;;;;5107730;27;44098;-71
2022/07/20 12:09:07;;;;;;;4.43;4.27;;;25.10;64.50;;;;;;5089497;27;43939;-70
2022/07/20 12:11:35;;;;;;;5.15;4.70;;;25.00;65.20;;;;;;5088486;27;44231;-69
2022/07/20 12:14:04;;;;;;;6.20;4.70;;;25.10;64.60;;;;;;5070526;27;43997;-69
2022/07/20 12:16:40;;;;;;;5.30;4.85;;;25.10;64.30;;;;;;5089890;27;43384;-71
2022/07/20 12:19:08;;;;;;;4.60;4.50;;;25.30;64.00;;;;;;5098045;27;44003;-70
2022/07/20 12:21:43;;;;;;;5.13;4.60;;;25.50;64.40;;;;;;5108936;27;43859;-69
2022/07/20 12:24:12;;;;;;;4.68;4.55;;;25.60;63.30;;;;;;5109079;27;43927;-70
2022/07/20 12:26:42;;;;;;;4.88;4.68;;;25.70;62.90;;;;;;5090858;27;43925;-70
2022/07/20 12:29:18;;;;;;;5.25;4.85;;;25.90;62.50;;;;;;5089269;27;43972;-70
2022/07/20 12:31:46;;;;;;;4.85;4.65;;;26.00;62.20;;;;;;5089485;27;43858;-70
2022/07/20 12:34:14;;;;;;;5.07;4.88;;;26.10;61.70;;;;;;5090294;27;43443;-70
2022/07/20 12:36:43;;;;;;;4.97;4.78;;;26.30;61.20;;;;;;5109311;27;43501;-70
2022/07/20 12:39:13;;;;;;;4.50;4.40;;;26.40;60.80;;;;;;5108949;27;43991;-69
2022/07/20 12:41:41;;;;;;;4.68;4.55;;;26.50;60.40;;;;;;5082091;27;43959;-70
2022/07/20 12:44:31;;;;;;;5.28;5.07;;;26.60;60.30;;;;;;5085898;27;44028;-69
2022/07/20 12:46:59;;;;;;;4.40;4.30;;;26.60;60.20;;;;;;5099147;27;43324;-69
2022/07/20 12:49:28;;;;;;;4.78;4.57;;;26.50;60.60;;;;;;5108417;27;43956;-70
2022/07/20 12:51:57;;;;;;;4.68;4.47;;;26.30;61.10;;;;;;5091720;27;43889;-70
2022/07/20 12:54:26;;;;;;;4.65;4.55;;;26.10;61.60;;;;;;5098994;27;43386;-70
2022/07/20 12:57:15;;;;;;;4.97;4.78;;;25.90;62.30;;;;;;5089738;27;43485;-69
2022/07/20 12:59:43;;;;;;;4.53;4.43;;;25.70;62.60;;;;;;5108540;27;43922;-70
2022/07/20 13:02:12;;;;;;;4.28;4.18;;;25.60;63.00;;;;;;5108450;27;43962;-70
2022/07/20 13:04:40;;;;;;;4.95;4.72;;;25.50;63.30;;;;;;5081562;27;43458;-70
2022/07/20 13:07:08;;;;;;;4.70;4.50;;;25.40;63.60;;;;;;5081981;27;43750;-70